createdAt,value
2019-03-23T00:00:53.395Z,0.00
2019-03-23T00:01:53.377Z,0.00
2019-03-23T00:02:53.369Z,0.00
2019-03-23T00:03:53.382Z,0.00
2019-03-23T00:04:53.351Z,0.00
2019-03-23T00:05:53.361Z,0.00
2019-03-23T00:06:53.320Z,0.00
2019-03-23T00:07:53.316Z,0.00
2019-03-23T00:08:53.307Z,0.00
2019-03-23T00:09:53.318Z,0.00
2019-03-23T00:10:53.286Z,0.00
2019-03-23T00:11:53.271Z,0.00
2019-03-23T00:12:53.261Z,0.00
2019-03-23T00:13:53.247Z,0.00
2019-03-23T00:14:53.260Z,0.00
2019-03-23T00:15:53.257Z,0.00
2019-03-23T00:16:53.238Z,0.00
2019-03-23T00:17:53.224Z,0.00
2019-03-23T00:18:53.217Z,0.00
2019-03-23T00:19:53.195Z,0.00
2019-03-23T00:20:53.209Z,0.00
2019-03-23T00:21:53.174Z,0.00
2019-03-23T00:22:53.170Z,0.00
2019-03-23T00:23:53.152Z,0.00
2019-03-23T00:24:53.158Z,0.00
2019-03-23T00:25:53.172Z,0.00
2019-03-23T00:26:53.204Z,0.00
2019-03-23T00:27:53.182Z,0.00
2019-03-23T00:28:53.117Z,0.00
2019-03-23T00:29:53.129Z,0.00
2019-03-23T00:30:53.087Z,0.00
2019-03-23T00:31:53.089Z,0.00
2019-03-23T00:32:53.298Z,0.00
2019-03-23T00:33:53.212Z,0.00
2019-03-23T00:34:53.037Z,0.00
2019-03-23T00:35:53.117Z,0.00
2019-03-23T00:36:53.047Z,0.00
2019-03-23T00:37:53.004Z,0.00
2019-03-23T00:38:52.985Z,0.00
2019-03-23T00:39:52.981Z,0.00
2019-03-23T00:40:53.067Z,0.00
2019-03-23T00:41:53.136Z,0.00
2019-03-23T00:42:52.969Z,0.00
2019-03-23T00:43:53.115Z,0.00
2019-03-23T00:44:52.923Z,0.00
2019-03-23T00:45:52.912Z,0.00
2019-03-23T00:46:52.906Z,0.00
2019-03-23T00:47:52.933Z,0.00
2019-03-23T00:48:52.883Z,0.00
2019-03-23T00:49:52.875Z,0.00
2019-03-23T00:50:52.862Z,0.00
2019-03-23T00:51:52.861Z,0.00
2019-03-23T00:52:52.833Z,0.00
2019-03-23T00:53:52.850Z,0.00
2019-03-23T00:54:52.817Z,0.00
2019-03-23T00:55:52.831Z,0.00
2019-03-23T00:56:52.949Z,0.00
2019-03-23T00:57:52.778Z,0.00
2019-03-23T00:58:52.899Z,0.00
2019-03-23T00:59:52.769Z,0.00
2019-03-23T01:00:52.756Z,0.00
2019-03-23T01:01:53.713Z,0.00
2019-03-23T01:02:52.735Z,0.00
2019-03-23T01:03:52.725Z,0.00
2019-03-23T01:04:52.734Z,0.00
2019-03-23T01:05:52.704Z,0.00
2019-03-23T01:06:52.693Z,0.00
2019-03-23T01:07:52.696Z,0.00
2019-03-23T01:08:52.714Z,0.00
2019-03-23T01:09:52.669Z,0.00
2019-03-23T01:10:52.674Z,0.00
2019-03-23T01:11:52.642Z,0.00
2019-03-23T01:12:52.646Z,0.00
2019-03-23T01:13:52.618Z,0.00
2019-03-23T01:14:52.620Z,0.00
2019-03-23T01:15:52.717Z,0.00
2019-03-23T01:16:52.588Z,0.00
2019-03-23T01:17:52.648Z,0.00
2019-03-23T01:18:52.564Z,0.00
2019-03-23T01:19:52.566Z,0.00
2019-03-23T01:20:52.556Z,0.00
2019-03-23T01:21:52.539Z,0.00
2019-03-23T01:22:52.512Z,0.00
2019-03-23T01:23:52.524Z,0.00
2019-03-23T01:24:52.606Z,0.00
2019-03-23T01:25:52.484Z,0.00
2019-03-23T01:26:52.495Z,0.00
2019-03-23T01:27:52.467Z,0.00
2019-03-23T01:28:52.455Z,0.00
2019-03-23T01:29:52.466Z,0.00
2019-03-23T01:30:52.854Z,0.00
2019-03-23T01:31:52.429Z,0.00
2019-03-23T01:32:52.408Z,0.00
2019-03-23T01:33:52.404Z,0.00
2019-03-23T01:34:52.391Z,0.00
2019-03-23T01:35:52.391Z,0.00
2019-03-23T01:37:02.278Z,0.00
2019-03-23T01:37:53.391Z,0.00
2019-03-23T01:39:00.406Z,0.00
2019-03-23T01:39:52.331Z,0.00
2019-03-23T01:40:52.322Z,0.00
2019-03-23T01:41:52.337Z,0.00
2019-03-23T01:42:52.297Z,0.00
2019-03-23T01:43:52.314Z,0.00
2019-03-23T01:44:53.239Z,0.00
2019-03-23T01:45:52.291Z,0.00
2019-03-23T01:46:52.324Z,0.00
2019-03-23T01:47:52.253Z,0.00
2019-03-23T01:48:52.238Z,0.00
2019-03-23T01:49:52.230Z,0.00
2019-03-23T01:50:52.232Z,0.00
2019-03-23T01:51:52.233Z,0.00
2019-03-23T01:52:52.214Z,0.00
2019-03-23T01:53:52.238Z,0.00
2019-03-23T01:54:52.183Z,0.00
2019-03-23T01:55:52.210Z,0.00
2019-03-23T01:56:52.178Z,0.00
2019-03-23T01:57:52.150Z,0.00
2019-03-23T01:58:52.155Z,0.00
2019-03-23T01:59:52.120Z,0.00
2019-03-23T02:00:52.111Z,0.00
2019-03-23T02:01:52.091Z,0.00
2019-03-23T02:02:52.125Z,0.00
2019-03-23T02:03:52.075Z,0.00
2019-03-23T02:04:52.060Z,0.00
2019-03-23T02:05:52.057Z,0.00
2019-03-23T02:06:52.067Z,0.00
2019-03-23T02:07:52.051Z,0.00
2019-03-23T02:08:52.034Z,0.00
2019-03-23T02:09:52.009Z,0.00
2019-03-23T02:10:52.001Z,0.00
2019-03-23T02:11:52.019Z,0.00
2019-03-23T02:12:51.980Z,0.00
2019-03-23T02:13:51.986Z,0.00
2019-03-23T02:14:51.982Z,0.00
2019-03-23T02:15:51.964Z,0.00
2019-03-23T02:16:51.935Z,0.00
2019-03-23T02:17:51.931Z,0.00
2019-03-23T02:18:51.941Z,0.00
2019-03-23T02:19:51.906Z,0.00
2019-03-23T02:20:51.897Z,0.00
2019-03-23T02:21:51.876Z,0.00
2019-03-23T02:22:51.865Z,0.00
2019-03-23T02:23:51.878Z,0.00
2019-03-23T02:24:51.847Z,0.00
2019-03-23T02:25:51.891Z,0.00
2019-03-23T02:26:51.826Z,0.00
2019-03-23T02:27:51.816Z,0.00
2019-03-23T02:28:51.821Z,0.00
2019-03-23T02:29:51.817Z,0.00
2019-03-23T02:30:51.791Z,0.00
2019-03-23T02:31:51.778Z,0.00
2019-03-23T02:32:51.763Z,0.00
2019-03-23T02:33:51.750Z,0.00
2019-03-23T02:34:51.759Z,0.00
2019-03-23T02:35:51.729Z,0.00
2019-03-23T02:36:51.717Z,0.00
2019-03-23T02:37:51.717Z,0.00
2019-03-23T02:38:51.700Z,0.00
2019-03-23T02:39:51.710Z,0.00
2019-03-23T02:40:51.684Z,0.00
2019-03-23T02:41:51.669Z,0.00
2019-03-23T02:42:51.650Z,0.00
2019-03-23T02:43:51.646Z,0.00
2019-03-23T02:44:51.663Z,0.00
2019-03-23T02:45:51.623Z,0.00
2019-03-23T02:46:51.618Z,0.00
2019-03-23T02:47:51.601Z,0.00
2019-03-23T02:48:51.590Z,0.00
2019-03-23T02:49:51.584Z,0.00
2019-03-23T02:50:51.597Z,0.00
2019-03-23T02:51:51.560Z,0.00
2019-03-23T02:52:51.561Z,0.00
2019-03-23T02:53:51.533Z,0.00
2019-03-23T02:54:51.530Z,0.00
2019-03-23T02:55:51.540Z,0.00
2019-03-23T02:56:51.503Z,0.00
2019-03-23T02:57:51.496Z,0.00
2019-03-23T02:58:51.496Z,0.00
2019-03-23T02:59:51.469Z,0.00
2019-03-23T03:00:51.460Z,0.00
2019-03-23T03:01:51.473Z,0.00
2019-03-23T03:02:51.444Z,0.00
2019-03-23T03:03:51.439Z,0.00
2019-03-23T03:04:51.430Z,0.00
2019-03-23T03:05:51.419Z,0.00
2019-03-23T03:06:51.443Z,0.00
2019-03-23T03:07:51.385Z,0.00
2019-03-23T03:08:51.374Z,0.00
2019-03-23T03:09:51.369Z,0.00
2019-03-23T03:10:51.359Z,0.00
2019-03-23T03:11:51.348Z,0.00
2019-03-23T03:12:51.357Z,0.00
2019-03-23T03:13:51.325Z,0.00
2019-03-23T03:14:51.309Z,0.00
2019-03-23T03:15:51.313Z,0.00
2019-03-23T03:16:51.294Z,0.00
2019-03-23T03:17:51.301Z,0.00
2019-03-23T03:18:51.263Z,0.00
2019-03-23T03:19:51.274Z,0.00
2019-03-23T03:20:51.250Z,0.00
2019-03-23T03:21:51.243Z,0.00
2019-03-23T03:22:51.258Z,0.00
2019-03-23T03:23:51.220Z,0.00
2019-03-23T03:24:51.206Z,0.00
2019-03-23T03:25:51.194Z,0.00
2019-03-23T03:26:51.187Z,0.00
2019-03-23T03:27:51.174Z,0.00
2019-03-23T03:28:51.182Z,0.00
2019-03-23T03:29:51.153Z,0.00
2019-03-23T03:30:51.186Z,0.00
2019-03-23T03:31:51.160Z,0.00
2019-03-23T03:32:51.122Z,0.00
2019-03-23T03:33:51.143Z,0.00
2019-03-23T03:34:51.102Z,0.00
2019-03-23T03:35:51.099Z,0.00
2019-03-23T03:36:51.081Z,0.00
2019-03-23T03:37:56.998Z,0.00
2019-03-23T03:38:52.097Z,0.00
2019-03-23T03:39:51.047Z,0.00
2019-03-23T03:40:51.031Z,0.00
2019-03-23T03:41:51.026Z,0.00
2019-03-23T03:42:51.013Z,0.00
2019-03-23T03:43:51.036Z,0.00
2019-03-23T03:44:50.994Z,0.00
2019-03-23T03:45:51.021Z,0.00
2019-03-23T03:46:50.977Z,0.00
2019-03-23T03:47:50.963Z,0.00
2019-03-23T03:48:50.950Z,0.00
2019-03-23T03:49:50.954Z,0.00
2019-03-23T03:50:50.933Z,0.00
2019-03-23T03:51:50.924Z,0.00
2019-03-23T03:52:50.903Z,0.00
2019-03-23T03:53:50.929Z,0.00
2019-03-23T03:54:50.887Z,0.00
2019-03-23T03:55:50.890Z,0.00
2019-03-23T03:56:50.868Z,0.00
2019-03-23T03:57:50.848Z,0.00
2019-03-23T03:58:50.837Z,0.00
2019-03-23T03:59:50.861Z,0.00
2019-03-23T04:00:50.820Z,0.00
2019-03-23T04:01:50.836Z,0.00
2019-03-23T04:02:50.806Z,0.00
2019-03-23T04:03:50.784Z,0.00
2019-03-23T04:04:50.799Z,0.00
2019-03-23T04:05:50.791Z,0.00
2019-03-23T04:06:50.757Z,0.00
2019-03-23T04:07:50.760Z,0.00
2019-03-23T04:08:50.741Z,0.00
2019-03-23T04:09:50.722Z,0.00
2019-03-23T04:10:50.748Z,0.00
2019-03-23T04:11:50.702Z,0.00
2019-03-23T04:12:50.688Z,0.00
2019-03-23T04:13:50.684Z,0.00
2019-03-23T04:14:50.675Z,0.00
2019-03-23T04:15:50.663Z,0.00
2019-03-23T04:16:50.925Z,0.00
2019-03-23T04:17:50.644Z,0.00
2019-03-23T04:18:50.628Z,0.00
2019-03-23T04:19:50.623Z,0.00
2019-03-23T04:20:50.614Z,0.00
2019-03-23T04:21:50.591Z,0.00
2019-03-23T04:22:50.612Z,0.00
2019-03-23T04:23:50.576Z,0.00
2019-03-23T04:24:50.563Z,0.00
2019-03-23T04:25:50.557Z,0.00
2019-03-23T04:26:50.566Z,0.00
2019-03-23T04:27:50.584Z,0.00
2019-03-23T04:28:50.527Z,0.00
2019-03-23T04:29:50.509Z,0.00
2019-03-23T04:30:50.500Z,0.00
2019-03-23T04:31:50.485Z,0.00
2019-03-23T04:32:50.477Z,0.00
2019-03-23T04:33:50.494Z,4.00
2019-03-23T04:34:50.464Z,4.00
2019-03-23T04:35:50.442Z,0.00
2019-03-23T04:36:50.432Z,0.00
2019-03-23T04:37:50.466Z,4.00
2019-03-23T04:38:50.419Z,0.00
2019-03-23T04:39:50.408Z,4.00
2019-03-23T04:40:50.404Z,4.00
2019-03-23T04:41:50.384Z,4.00
2019-03-23T04:42:50.376Z,4.00
2019-03-23T04:43:50.393Z,4.00
2019-03-23T04:44:50.367Z,8.00
2019-03-23T04:45:50.353Z,12.00
2019-03-23T04:46:50.347Z,12.00
2019-03-23T04:47:50.321Z,16.00
2019-03-23T04:48:50.336Z,16.00
2019-03-23T04:49:50.300Z,20.00
2019-03-23T04:50:50.284Z,20.00
2019-03-23T04:51:50.281Z,28.00
2019-03-23T04:52:50.267Z,32.00
2019-03-23T04:53:50.272Z,32.00
2019-03-23T04:54:50.246Z,36.00
2019-03-23T04:55:50.251Z,44.00
2019-03-23T04:56:50.220Z,44.00
2019-03-23T04:57:50.218Z,52.00
2019-03-23T04:58:50.234Z,60.00
2019-03-23T04:59:50.208Z,68.00
2019-03-23T05:00:50.210Z,76.00
2019-03-23T05:01:50.168Z,80.00
2019-03-23T05:02:50.167Z,88.00
2019-03-23T05:03:50.146Z,96.00
2019-03-23T05:04:50.135Z,108.00
2019-03-23T05:05:50.158Z,116.00
2019-03-23T05:06:50.121Z,128.00
2019-03-23T05:07:50.103Z,136.00
2019-03-23T05:08:50.120Z,152.00
2019-03-23T05:09:50.088Z,160.00
2019-03-23T05:10:50.085Z,176.00
2019-03-23T05:11:50.090Z,184.00
2019-03-23T05:12:50.059Z,200.00
2019-03-23T05:13:50.037Z,216.00
2019-03-23T05:14:50.031Z,228.00
2019-03-23T05:15:50.046Z,248.00
2019-03-23T05:16:50.078Z,260.00
2019-03-23T05:17:50.002Z,280.00
2019-03-23T05:18:50.028Z,300.00
2019-03-23T05:19:49.999Z,324.00
2019-03-23T05:20:49.971Z,344.00
2019-03-23T05:21:49.953Z,364.00
2019-03-23T05:22:49.965Z,376.00
2019-03-23T05:23:49.988Z,400.00
2019-03-23T05:24:49.927Z,408.00
2019-03-23T05:25:49.919Z,432.00
2019-03-23T05:26:49.899Z,456.00
2019-03-23T05:27:49.919Z,484.00
2019-03-23T05:28:49.882Z,512.00
2019-03-23T05:29:49.875Z,532.00
2019-03-23T05:30:49.864Z,552.00
2019-03-23T05:31:49.865Z,580.00
2019-03-23T05:32:49.843Z,604.00
2019-03-23T05:33:49.860Z,636.00
2019-03-23T05:34:49.817Z,664.00
2019-03-23T05:35:49.803Z,680.00
2019-03-23T05:36:49.795Z,712.00
2019-03-23T05:37:49.803Z,752.00
2019-03-23T05:38:49.813Z,776.00
2019-03-23T05:39:49.764Z,816.00
2019-03-23T05:40:49.752Z,852.00
2019-03-23T05:41:49.744Z,888.00
2019-03-23T05:42:49.735Z,920.00
2019-03-23T05:43:49.726Z,932.00
2019-03-23T05:44:49.749Z,976.00
2019-03-23T05:45:49.698Z,1004.00
2019-03-23T05:46:49.686Z,1044.00
2019-03-23T05:47:49.676Z,1048.00
2019-03-23T05:48:49.668Z,1120.00
2019-03-23T05:49:49.667Z,1112.00
2019-03-23T05:50:49.671Z,1188.00
2019-03-23T05:51:49.648Z,1256.00
2019-03-23T05:52:49.628Z,1244.00
2019-03-23T05:53:49.613Z,1276.00
2019-03-23T05:54:49.633Z,1308.00
2019-03-23T05:55:49.598Z,1312.00
2019-03-23T05:56:49.592Z,1408.00
2019-03-23T05:57:49.567Z,1432.00
2019-03-23T05:58:49.562Z,1512.00
2019-03-23T05:59:49.556Z,1452.00
2019-03-23T06:00:49.569Z,1460.00
2019-03-23T06:01:49.535Z,1464.00
2019-03-23T06:02:49.530Z,1476.00
2019-03-23T06:03:49.514Z,1548.00
2019-03-23T06:04:49.501Z,1536.00
2019-03-23T06:05:49.491Z,1580.00
2019-03-23T06:06:49.506Z,1624.00
2019-03-23T06:07:49.511Z,1656.00
2019-03-23T06:08:54.948Z,1680.00
2019-03-23T06:09:50.454Z,1716.00
2019-03-23T06:10:49.453Z,1728.00
2019-03-23T06:11:49.427Z,1776.00
2019-03-23T06:12:49.434Z,1796.00
2019-03-23T06:13:49.405Z,1812.00
2019-03-23T06:14:49.397Z,1852.00
2019-03-23T06:15:49.386Z,1880.00
2019-03-23T06:16:49.415Z,1904.00
2019-03-23T06:17:49.383Z,1944.00
2019-03-23T06:18:49.345Z,1972.00
2019-03-23T06:19:49.340Z,1996.00
2019-03-23T06:20:49.328Z,2028.00
2019-03-23T06:21:49.318Z,2072.00
2019-03-23T06:22:49.335Z,2104.00
2019-03-23T06:23:49.302Z,2144.00
2019-03-23T06:24:49.290Z,2168.00
2019-03-23T06:25:49.280Z,2188.00
2019-03-23T06:26:49.262Z,2228.00
2019-03-23T06:27:49.277Z,2256.00
2019-03-23T06:28:49.243Z,2292.00
2019-03-23T06:29:49.230Z,2336.00
2019-03-23T06:30:49.228Z,2364.00
2019-03-23T06:31:49.211Z,2412.00
2019-03-23T06:32:49.226Z,2472.00
2019-03-23T06:33:49.196Z,2536.00
2019-03-23T06:34:49.324Z,2572.00
2019-03-23T06:35:49.554Z,2616.00
2019-03-23T06:36:49.157Z,2660.00
2019-03-23T06:37:49.145Z,2700.00
2019-03-23T06:38:49.155Z,2768.00
2019-03-23T06:39:49.121Z,2804.00
2019-03-23T06:40:49.114Z,2848.00
2019-03-23T06:41:49.106Z,2904.00
2019-03-23T06:42:59.098Z,2940.00
2019-03-23T06:43:50.101Z,2992.00
2019-03-23T06:44:49.083Z,3036.00
2019-03-23T06:45:49.060Z,3092.00
2019-03-23T06:46:49.053Z,3144.00
2019-03-23T06:47:49.045Z,3192.00
2019-03-23T06:48:49.064Z,3248.00
2019-03-23T06:49:49.018Z,3312.00
2019-03-23T06:50:49.008Z,3368.00
2019-03-23T06:51:48.993Z,3404.00
2019-03-23T06:52:48.984Z,3448.00
2019-03-23T06:53:48.979Z,3488.00
2019-03-23T06:54:48.988Z,3556.00
2019-03-23T06:55:48.958Z,3632.00
2019-03-23T06:56:48.950Z,3632.00
2019-03-23T06:57:48.932Z,3696.00
2019-03-23T06:58:48.928Z,3724.00
2019-03-23T06:59:49.386Z,3764.00
2019-03-23T07:00:48.910Z,3832.00
2019-03-23T07:01:48.889Z,3892.00
2019-03-23T07:02:48.878Z,3936.00
2019-03-23T07:03:48.881Z,4032.00
2019-03-23T07:04:48.879Z,4056.00
2019-03-23T07:05:48.847Z,4104.00
2019-03-23T07:06:48.839Z,4112.00
2019-03-23T07:07:48.835Z,4176.00
2019-03-23T07:08:48.850Z,4180.00
2019-03-23T07:09:48.805Z,4252.00
2019-03-23T07:10:48.793Z,4256.00
2019-03-23T07:11:48.788Z,4272.00
2019-03-23T07:12:48.774Z,4308.00
2019-03-23T07:13:48.777Z,4380.00
2019-03-23T07:14:48.774Z,4432.00
2019-03-23T07:15:48.738Z,4484.00
2019-03-23T07:16:48.734Z,4524.00
2019-03-23T07:17:48.723Z,4556.00
2019-03-23T07:18:48.713Z,4668.00
2019-03-23T07:19:48.727Z,4648.00
2019-03-23T07:20:57.899Z,4720.00
2019-03-23T07:21:48.689Z,4776.00
2019-03-23T07:22:57.432Z,4824.00
2019-03-23T07:23:57.458Z,4880.00
2019-03-23T07:24:48.672Z,5000.00
2019-03-23T07:25:48.642Z,5032.00
2019-03-23T07:26:57.494Z,5140.00
2019-03-23T07:27:48.615Z,5240.00
2019-03-23T07:28:48.602Z,5292.00
2019-03-23T07:29:48.598Z,5392.00
2019-03-23T07:30:48.608Z,5524.00
2019-03-23T07:31:48.587Z,5588.00
2019-03-23T07:32:48.564Z,5608.00
2019-03-23T07:33:48.546Z,5720.00
2019-03-23T07:34:48.538Z,5780.00
2019-03-23T07:35:48.546Z,5784.00
2019-03-23T07:36:48.519Z,5932.00
2019-03-23T07:37:48.516Z,6044.00
2019-03-23T07:38:48.497Z,6100.00
2019-03-23T07:39:48.482Z,6136.00
2019-03-23T07:40:48.586Z,6216.00
2019-03-23T07:41:48.483Z,6328.00
2019-03-23T07:42:48.457Z,6380.00
2019-03-23T07:43:48.445Z,6428.00
2019-03-23T07:44:48.435Z,6296.00
2019-03-23T07:45:48.431Z,6356.00
2019-03-23T07:46:48.435Z,6400.00
2019-03-23T07:47:48.401Z,6560.00
2019-03-23T07:48:48.394Z,6596.00
2019-03-23T07:49:48.389Z,6644.00
2019-03-23T07:50:48.403Z,6632.00
2019-03-23T07:51:48.359Z,6668.00
2019-03-23T07:52:48.359Z,6732.00
2019-03-23T07:53:48.331Z,6752.00
2019-03-23T07:54:48.361Z,6764.00
2019-03-23T07:55:48.313Z,6744.00
2019-03-23T07:56:48.389Z,6848.00
2019-03-23T07:57:48.307Z,6908.00
2019-03-23T07:58:48.276Z,7028.00
2019-03-23T07:59:48.268Z,7072.00
2019-03-23T08:00:48.256Z,7156.00
2019-03-23T08:01:48.283Z,7244.00
2019-03-23T08:02:48.241Z,7392.00
2019-03-23T08:03:48.247Z,7344.00
2019-03-23T08:04:48.222Z,7516.00
2019-03-23T08:05:48.203Z,7544.00
2019-03-23T08:06:48.209Z,7552.00
2019-03-23T08:07:48.201Z,7684.00
2019-03-23T08:08:48.185Z,7840.00
2019-03-23T08:09:48.226Z,7920.00
2019-03-23T08:10:48.173Z,7884.00
2019-03-23T08:11:48.157Z,7956.00
2019-03-23T08:12:48.157Z,7992.00
2019-03-23T08:13:48.123Z,8120.00
2019-03-23T08:14:48.360Z,8236.00
2019-03-23T08:15:48.143Z,8308.00
2019-03-23T08:16:48.129Z,8512.00
2019-03-23T08:17:48.073Z,8620.00
2019-03-23T08:18:48.102Z,8804.00
2019-03-23T08:19:48.056Z,8748.00
2019-03-23T08:20:48.128Z,8708.00
2019-03-23T08:21:48.036Z,8720.00
2019-03-23T08:22:48.038Z,8824.00
2019-03-23T08:23:48.015Z,9112.00
2019-03-23T08:24:48.098Z,8944.00
2019-03-23T08:25:47.998Z,9120.00
2019-03-23T08:26:47.988Z,9204.00
2019-03-23T08:27:47.978Z,9360.00
2019-03-23T08:28:47.996Z,9376.00
2019-03-23T08:29:47.953Z,9392.00
2019-03-23T08:30:47.936Z,9568.00
2019-03-23T08:31:47.929Z,9692.00
2019-03-23T08:32:47.937Z,9784.00
2019-03-23T08:33:47.940Z,9892.00
2019-03-23T08:34:47.984Z,10128.00
2019-03-23T08:35:47.891Z,10256.00
2019-03-23T08:36:47.888Z,10160.00
2019-03-23T08:37:47.898Z,10184.00
2019-03-23T08:38:47.910Z,10376.00
2019-03-23T08:39:48.688Z,10496.00
2019-03-23T08:40:47.834Z,10648.00
2019-03-23T08:41:47.837Z,10708.00
2019-03-23T08:42:47.817Z,10788.00
2019-03-23T08:43:47.801Z,10912.00
2019-03-23T08:44:47.816Z,10820.00
2019-03-23T08:45:47.817Z,10884.00
2019-03-23T08:46:47.780Z,11172.00
2019-03-23T08:47:47.772Z,11528.00
2019-03-23T08:48:47.753Z,11460.00
2019-03-23T08:49:47.749Z,11476.00
2019-03-23T08:50:47.759Z,11860.00
2019-03-23T08:51:47.715Z,12112.00
2019-03-23T08:52:47.729Z,12312.00
2019-03-23T08:53:47.697Z,12464.00
2019-03-23T08:54:47.736Z,12808.00
2019-03-23T08:55:47.684Z,13132.00
2019-03-23T08:56:47.745Z,13464.00
2019-03-23T08:57:47.697Z,13860.00
2019-03-23T08:58:48.478Z,14380.00
2019-03-23T08:59:47.635Z,14868.00
2019-03-23T09:00:47.644Z,15416.00
2019-03-23T09:01:47.635Z,16200.00
2019-03-23T09:02:47.596Z,17056.00
2019-03-23T09:03:52.395Z,18144.00
2019-03-23T09:04:48.603Z,19456.00
2019-03-23T09:05:47.576Z,21312.00
2019-03-23T09:06:47.647Z,23680.00
2019-03-23T09:07:47.547Z,33440.00
2019-03-23T09:08:47.537Z,48864.00
2019-03-23T09:09:47.522Z,59744.00
2019-03-23T09:10:47.510Z,61184.00
2019-03-23T09:11:47.524Z,62368.00
2019-03-23T09:12:47.511Z,61952.00
2019-03-23T09:13:47.491Z,61248.00
2019-03-23T09:14:47.477Z,62080.00
2019-03-23T09:15:47.462Z,65248.00
2019-03-23T09:16:47.469Z,63360.00
2019-03-23T09:17:47.453Z,60896.00
2019-03-23T09:18:47.751Z,59904.00
2019-03-23T09:19:47.444Z,59680.00
2019-03-23T09:20:47.407Z,60416.00
2019-03-23T09:21:47.397Z,62592.00
2019-03-23T09:22:47.411Z,66656.00
2019-03-23T09:23:47.384Z,68576.00
2019-03-23T09:24:47.383Z,69792.00
2019-03-23T09:25:47.350Z,70016.00
2019-03-23T09:26:47.345Z,70144.00
2019-03-23T09:27:47.350Z,69952.00
2019-03-23T09:28:47.355Z,70336.00
2019-03-23T09:29:47.406Z,67936.00
2019-03-23T09:30:47.319Z,69280.00
2019-03-23T09:31:47.290Z,71072.00
2019-03-23T09:32:47.281Z,72672.00
2019-03-23T09:33:47.317Z,72864.00
2019-03-23T09:34:47.272Z,69760.00
2019-03-23T09:35:47.264Z,70144.00
2019-03-23T09:36:47.303Z,72608.00
2019-03-23T09:37:47.259Z,75552.00
2019-03-23T09:38:47.222Z,73952.00
2019-03-23T09:39:47.271Z,71520.00
2019-03-23T09:40:47.205Z,68064.00
2019-03-23T09:41:47.204Z,63584.00
2019-03-23T09:42:47.192Z,58176.00
2019-03-23T09:43:47.198Z,56928.00
2019-03-23T09:44:47.214Z,59200.00
2019-03-23T09:45:47.176Z,62304.00
2019-03-23T09:46:47.161Z,63648.00
2019-03-23T09:47:47.154Z,64448.00
2019-03-23T09:48:47.150Z,67872.00
2019-03-23T09:49:47.146Z,70080.00
2019-03-23T09:50:47.132Z,68896.00
2019-03-23T09:51:47.102Z,70240.00
2019-03-23T09:52:47.145Z,72928.00
2019-03-23T09:53:47.098Z,73120.00
2019-03-23T09:54:47.094Z,71392.00
2019-03-23T09:55:47.076Z,69952.00
2019-03-23T09:56:47.115Z,70816.00
2019-03-23T09:57:47.053Z,68192.00
2019-03-23T09:58:47.053Z,70240.00
2019-03-23T09:59:47.030Z,70912.00
2019-03-23T10:00:47.020Z,72928.00
2019-03-23T10:01:47.057Z,74624.00
2019-03-23T10:02:47.011Z,77184.00
2019-03-23T10:03:47.006Z,78432.00
2019-03-23T10:04:46.995Z,76064.00
2019-03-23T10:05:46.994Z,74304.00
2019-03-23T10:06:47.030Z,72704.00
2019-03-23T10:07:46.975Z,68960.00
2019-03-23T10:08:46.959Z,67264.00
2019-03-23T10:09:46.943Z,67008.00
2019-03-23T10:10:46.929Z,66976.00
2019-03-23T10:11:46.926Z,71488.00
2019-03-23T10:12:46.941Z,74816.00
2019-03-23T10:13:46.936Z,74048.00
2019-03-23T10:14:46.939Z,72832.00
2019-03-23T10:15:46.896Z,71648.00
2019-03-23T10:16:46.887Z,69696.00
2019-03-23T10:17:46.872Z,68000.00
2019-03-23T10:18:46.877Z,66848.00
2019-03-23T10:19:46.865Z,66528.00
2019-03-23T10:20:46.877Z,66656.00
2019-03-23T10:21:46.835Z,67872.00
2019-03-23T10:22:46.849Z,66144.00
2019-03-23T10:23:46.822Z,65728.00
2019-03-23T10:24:46.830Z,65248.00
2019-03-23T10:25:46.840Z,51264.00
2019-03-23T10:26:46.797Z,27520.00
2019-03-23T10:27:46.791Z,21728.00
2019-03-23T10:28:46.835Z,21728.00
2019-03-23T10:29:46.797Z,20384.00
2019-03-23T10:30:46.775Z,19456.00
2019-03-23T10:31:46.753Z,18752.00
2019-03-23T10:32:46.746Z,18208.00
2019-03-23T10:33:46.736Z,17472.00
2019-03-23T10:34:46.722Z,17120.00
2019-03-23T10:35:46.730Z,16608.00
2019-03-23T10:36:46.710Z,16064.00
2019-03-23T10:37:46.704Z,15916.00
2019-03-23T10:38:46.701Z,15772.00
2019-03-23T10:39:46.678Z,14976.00
2019-03-23T10:40:46.703Z,14776.00
2019-03-23T10:41:46.654Z,14364.00
2019-03-23T10:42:46.647Z,14064.00
2019-03-23T10:43:46.640Z,13436.00
2019-03-23T10:44:46.621Z,12872.00
2019-03-23T10:45:46.618Z,12344.00
2019-03-23T10:46:46.639Z,12252.00
2019-03-23T10:47:46.800Z,12204.00
2019-03-23T10:48:46.587Z,12176.00
2019-03-23T10:49:46.579Z,12040.00
2019-03-23T10:50:46.563Z,11952.00
2019-03-23T10:51:46.569Z,11884.00
2019-03-23T10:52:46.548Z,11844.00
2019-03-23T10:53:46.575Z,11752.00
2019-03-23T10:54:46.517Z,11776.00
2019-03-23T10:55:46.506Z,11636.00
2019-03-23T10:56:46.508Z,11868.00
2019-03-23T10:57:46.530Z,11880.00
2019-03-23T10:58:46.482Z,11640.00
2019-03-23T10:59:46.476Z,11496.00
2019-03-23T11:00:46.494Z,11624.00
2019-03-23T11:01:46.486Z,11600.00
2019-03-23T11:02:46.457Z,11300.00
2019-03-23T11:03:46.459Z,11408.00
2019-03-23T11:04:46.420Z,11324.00
2019-03-23T11:05:46.453Z,11240.00
2019-03-23T11:06:46.421Z,11168.00
2019-03-23T11:07:46.406Z,11156.00
2019-03-23T11:08:46.447Z,11072.00
2019-03-23T11:09:46.377Z,11116.00
2019-03-23T11:10:46.404Z,11188.00
2019-03-23T11:11:46.383Z,10884.00
2019-03-23T11:12:46.341Z,11004.00
2019-03-23T11:13:46.318Z,10696.00
2019-03-23T11:14:46.375Z,10800.00
2019-03-23T11:15:46.327Z,10732.00
2019-03-23T11:16:46.353Z,10820.00
2019-03-23T11:17:46.292Z,10804.00
2019-03-23T11:18:46.287Z,10692.00
2019-03-23T11:19:46.317Z,10784.00
2019-03-23T11:20:46.253Z,10724.00
2019-03-23T11:21:46.238Z,10500.00
2019-03-23T11:22:46.221Z,10568.00
2019-03-23T11:23:46.240Z,10380.00
2019-03-23T11:24:46.295Z,10260.00
2019-03-23T11:25:46.231Z,10208.00
2019-03-23T11:26:46.181Z,10396.00
2019-03-23T11:27:46.172Z,10268.00
2019-03-23T11:28:46.162Z,10236.00
2019-03-23T11:29:46.163Z,10228.00
2019-03-23T11:30:46.166Z,10248.00
2019-03-23T11:31:46.138Z,10216.00
2019-03-23T11:32:46.118Z,10088.00
2019-03-23T11:33:46.104Z,10080.00
2019-03-23T11:34:46.091Z,10336.00
2019-03-23T11:35:46.106Z,10108.00
2019-03-23T11:36:46.069Z,10036.00
2019-03-23T11:37:46.244Z,9888.00
2019-03-23T11:38:46.062Z,9564.00
2019-03-23T11:39:46.040Z,9576.00
2019-03-23T11:40:52.878Z,9556.00
2019-03-23T11:41:47.022Z,9452.00
2019-03-23T11:42:50.273Z,9396.00
2019-03-23T11:43:46.025Z,9400.00
2019-03-23T11:44:46.008Z,9484.00
2019-03-23T11:45:46.023Z,9412.00
2019-03-23T11:46:45.987Z,9360.00
2019-03-23T11:47:45.953Z,9288.00
2019-03-23T11:48:45.941Z,9424.00
2019-03-23T11:49:45.948Z,9368.00
2019-03-23T11:50:45.927Z,9508.00
2019-03-23T11:51:46.071Z,9768.00
2019-03-23T11:52:47.063Z,9672.00
2019-03-23T11:53:45.903Z,9296.00
2019-03-23T11:54:45.910Z,9228.00
2019-03-23T11:55:45.889Z,9120.00
2019-03-23T11:56:45.879Z,9260.00
2019-03-23T11:57:45.914Z,9040.00
2019-03-23T11:58:45.845Z,8920.00
2019-03-23T11:59:45.849Z,8796.00
2019-03-23T12:00:45.822Z,8596.00
2019-03-23T12:01:51.719Z,8608.00
2019-03-23T12:02:46.838Z,8488.00
2019-03-23T12:03:45.789Z,8412.00
2019-03-23T12:04:45.783Z,8212.00
2019-03-23T12:05:45.770Z,8032.00
2019-03-23T12:06:45.753Z,7908.00
2019-03-23T12:07:45.765Z,7836.00
2019-03-23T12:08:45.758Z,7736.00
2019-03-23T12:09:45.735Z,7820.00
2019-03-23T12:10:45.715Z,7712.00
2019-03-23T12:11:45.707Z,7740.00
2019-03-23T12:12:45.694Z,7740.00
2019-03-23T12:13:45.710Z,7892.00
2019-03-23T12:14:45.672Z,7804.00
2019-03-23T12:15:45.691Z,7836.00
2019-03-23T12:16:45.651Z,7768.00
2019-03-23T12:17:45.634Z,7876.00
2019-03-23T12:18:45.679Z,7852.00
2019-03-23T12:19:45.633Z,7924.00
2019-03-23T12:20:45.603Z,7904.00
2019-03-23T12:21:45.597Z,7848.00
2019-03-23T12:22:45.588Z,7720.00
2019-03-23T12:23:45.576Z,7896.00
2019-03-23T12:24:45.586Z,7996.00
2019-03-23T12:25:45.549Z,7788.00
2019-03-23T12:26:45.561Z,7612.00
2019-03-23T12:27:45.533Z,7540.00
2019-03-23T12:28:45.556Z,7436.00